Aviation Digital Data Service (ADDS)

Output produced by METARs form (2325 UTC 23 May 2022)
found at http://www.aviationweather.gov/metar/data/
 
METAR text: UHWW 232300Z 27004MPS 9999 FEW020CB 13/12 Q1011 R25L/0///70 NOSIG RMK QFE757
Conditions at: UHWW (VLADIVOSTOK , RU) observed 2300 UTC 23 May 2022
Temperature: 13.0°C (55°F)
Dewpoint: 12.0°C (54°F) [RH = 94%]
Pressure (altimeter): 29.85 inches Hg (1011.0 mb)
Winds: from the W (270 degrees) at 9 MPH (8 knots; 4.1 m/s)
Visibility: 6 or more miles (10+ km)
Ceiling: at least 12,000 feet AGL
Clouds: few clouds at 2000 feet AGL
Weather: no significant weather observed at this time

METAR text: UHWW 232230Z VRB01MPS 9999 FEW020CB 14/12 Q1010 R25L/0///70 NOSIG RMK QFE757
Conditions at: UHWW (VLADIVOSTOK , RU) observed 2230 UTC 23 May 2022
Temperature: 14.0°C (57°F)
Dewpoint: 12.0°C (54°F) [RH = 88%]
Pressure (altimeter): 29.82 inches Hg (1010.0 mb)
Winds: variable direction winds at 2 MPH (2 knots; 1.0 m/s)
Visibility: 6 or more miles (10+ km)
Ceiling: at least 12,000 feet AGL
Clouds: few clouds at 2000 feet AGL
Weather: no significant weather observed at this time

METAR text: UHWW 232200Z 34002MPS 9999 SCT020CB 13/12 Q1010 R25L/190065 NOSIG RMK QFE757
Conditions at: UHWW (VLADIVOSTOK , RU) observed 2200 UTC 23 May 2022
Temperature: 13.0°C (55°F)
Dewpoint: 12.0°C (54°F) [RH = 94%]
Pressure (altimeter): 29.82 inches Hg (1010.0 mb)
Winds: from the NNW (340 degrees) at 5 MPH (4 knots; 2.1 m/s)
Visibility: 6 or more miles (10+ km)
Ceiling: at least 12,000 feet AGL
Clouds: scattered clouds at 2000 feet AGL
Weather: no significant weather observed at this time

METAR text: UHWW 232130Z VRB07G12MPS 9999 SCT020CB 12/11 Q1011 R25L/190065 NOSIG RMK QFE757
Conditions at: UHWW (VLADIVOSTOK , RU) observed 2130 UTC 23 May 2022
Temperature: 12.0°C (54°F)
Dewpoint: 11.0°C (52°F) [RH = 94%]
Pressure (altimeter): 29.85 inches Hg (1011.0 mb)
Winds: variable direction winds at 16 MPH (14 knots; 7.2 m/s)
gusting to 26 MPH (23 knots; 11.8 m/s)
Visibility: 6 or more miles (10+ km)
Ceiling: at least 12,000 feet AGL
Clouds: scattered clouds at 2000 feet AGL
Weather: no significant weather observed at this time

METAR text: UHWW 232100Z 08003MPS 350V160 9999 SCT030CB 12/11 Q1012 R25L/190065 NOSIG RMK QFE757
Conditions at: UHWW (VLADIVOSTOK , RU) observed 2100 UTC 23 May 2022
Temperature: 12.0°C (54°F)
Dewpoint: 11.0°C (52°F) [RH = 94%]
Pressure (altimeter): 29.88 inches Hg (1012.0 mb)
Winds: from the E (80 degrees) at 7 MPH (6 knots; 3.1 m/s)
Visibility: 6 or more miles (10+ km)
Ceiling: at least 12,000 feet AGL
Clouds: scattered clouds at 3000 feet AGL
Weather: no significant weather observed at this time

METAR text: UHWW 232030Z 11005MPS 9999 BKN030CB 12/11 Q1011 R25L/290160 NOSIG RMK QFE757
Conditions at: UHWW (VLADIVOSTOK , RU) observed 2030 UTC 23 May 2022
Temperature: 12.0°C (54°F)
Dewpoint: 11.0°C (52°F) [RH = 94%]
Pressure (altimeter): 29.85 inches Hg (1011.0 mb)
Winds: from the ESE (110 degrees) at 12 MPH (10 knots; 5.1 m/s)
Visibility: 6 or more miles (10+ km)
Ceiling: 3000 feet AGL
Clouds: broken clouds at 3000 feet AGL
Weather: no significant weather observed at this time

METAR text: UHWW 232000Z 07003MPS 010V100 7000 -SHRA BKN030CB 11/11 Q1012 R25L/290160 NOSIG RMK QFE758
Conditions at: UHWW (VLADIVOSTOK , RU) observed 2000 UTC 23 May 2022
Temperature: 11.0°C (52°F)
Dewpoint: 11.0°C (52°F) [RH = 100%]
Pressure (altimeter): 29.88 inches Hg (1012.0 mb)
Winds: from the ENE (70 degrees) at 7 MPH (6 knots; 3.1 m/s)
Visibility: 4 miles ( 7 km)
Ceiling: 3000 feet AGL
Clouds: broken clouds at 3000 feet AGL
Weather: -SHRA  (light rain showers)

METAR text: UHWW 231930Z VRB01MPS 6000 -SHRA BKN030CB 11/11 Q1012 R25L/290160 NOSIG RMK QFE758
Conditions at: UHWW (VLADIVOSTOK , RU) observed 1930 UTC 23 May 2022
Temperature: 11.0°C (52°F)
Dewpoint: 11.0°C (52°F) [RH = 100%]
Pressure (altimeter): 29.88 inches Hg (1012.0 mb)
Winds: variable direction winds at 2 MPH (2 knots; 1.0 m/s)
Visibility: 4 miles ( 6 km)
Ceiling: 3000 feet AGL
Clouds: broken clouds at 3000 feet AGL
Weather: -SHRA  (light rain showers)

METAR text: UHWW 231900Z 12003MPS 9000 -TSRA BKN023CB 12/11 Q1012 R25L/290160 NOSIG RMK QFE758
Conditions at: UHWW (VLADIVOSTOK , RU) observed 1900 UTC 23 May 2022
Temperature: 12.0°C (54°F)
Dewpoint: 11.0°C (52°F) [RH = 94%]
Pressure (altimeter): 29.88 inches Hg (1012.0 mb)
Winds: from the ESE (120 degrees) at 7 MPH (6 knots; 3.1 m/s)
Visibility: 6 miles ( 9 km)
Ceiling: 2300 feet AGL
Clouds: broken clouds at 2300 feet AGL
Weather: -TSRA  (light rain associated with thunderstorm(s))

METAR text: UHWW 231830Z 10003MPS 6000 -TSRA BKN023CB 11/10 Q1013 R25L/290160 NOSIG RMK QFE758
Conditions at: UHWW (VLADIVOSTOK , RU) observed 1830 UTC 23 May 2022
Temperature: 11.0°C (52°F)
Dewpoint: 10.0°C (50°F) [RH = 94%]
Pressure (altimeter): 29.91 inches Hg (1013.0 mb)
Winds: from the E (100 degrees) at 7 MPH (6 knots; 3.1 m/s)
Visibility: 4 miles ( 6 km)
Ceiling: 2300 feet AGL
Clouds: broken clouds at 2300 feet AGL
Weather: -TSRA  (light rain associated with thunderstorm(s))

METAR text: UHWW 231800Z VRB01MPS 8000 -TSRA BKN020CB 11/10 Q1013 R25L/0///70 NOSIG RMK QFE759
Conditions at: UHWW (VLADIVOSTOK , RU) observed 1800 UTC 23 May 2022
Temperature: 11.0°C (52°F)
Dewpoint: 10.0°C (50°F) [RH = 94%]
Pressure (altimeter): 29.91 inches Hg (1013.0 mb)
Winds: variable direction winds at 2 MPH (2 knots; 1.0 m/s)
Visibility: 5 miles ( 8 km)
Ceiling: 2000 feet AGL
Clouds: broken clouds at 2000 feet AGL
Weather: -TSRA  (light rain associated with thunderstorm(s))

METAR text: UHWW 231730Z 31006MPS 9999 BKN016 12/10 Q1015 R25L/0///70 NOSIG RMK QFE760
Conditions at: UHWW (VLADIVOSTOK , RU) observed 1730 UTC 23 May 2022
Temperature: 12.0°C (54°F)
Dewpoint: 10.0°C (50°F) [RH = 88%]
Pressure (altimeter): 29.97 inches Hg (1015.0 mb)
Winds: from the NW (310 degrees) at 14 MPH (12 knots; 6.2 m/s)
Visibility: 6 or more miles (10+ km)
Ceiling: 1600 feet AGL
Clouds: broken clouds at 1600 feet AGL
Weather: no significant weather observed at this time

METAR text: UHWW 231700Z 28005G12MPS 170V340 9999 SCT030 11/09 Q1014 R25L/0///70 NOSIG RMK QFE759
Conditions at: UHWW (VLADIVOSTOK , RU) observed 1700 UTC 23 May 2022
Temperature: 11.0°C (52°F)
Dewpoint: 9.0°C (48°F) [RH = 87%]
Pressure (altimeter): 29.94 inches Hg (1014.0 mb)
Winds: from the W (280 degrees) at 12 MPH (10 knots; 5.1 m/s)
gusting to 26 MPH (23 knots; 11.8 m/s)
Visibility: 6 or more miles (10+ km)
Ceiling: at least 12,000 feet AGL
Clouds: scattered clouds at 3000 feet AGL
Weather: no significant weather observed at this time

METAR text: UHWW 231630Z 00000MPS 9999 NSC 10/08 Q1011 R25L/0///70 NOSIG RMK QFE757
Conditions at: UHWW (VLADIVOSTOK , RU) observed 1630 UTC 23 May 2022
Temperature: 10.0°C (50°F)
Dewpoint: 8.0°C (46°F) [RH = 87%]
Pressure (altimeter): 29.85 inches Hg (1011.0 mb)
Winds: calm
Visibility: 6 or more miles (10+ km)
Ceiling: at least 12,000 feet AGL
Clouds: sky clear below 12,000 feet AGL
Weather: no significant weather observed at this time

METAR text: UHWW 231600Z 00000MPS 9999 NSC 09/08 Q1011 R25L/0///70 NOSIG RMK QFE757
Conditions at: UHWW (VLADIVOSTOK , RU) observed 1600 UTC 23 May 2022
Temperature: 9.0°C (48°F)
Dewpoint: 8.0°C (46°F) [RH = 93%]
Pressure (altimeter): 29.85 inches Hg (1011.0 mb)
Winds: calm
Visibility: 6 or more miles (10+ km)
Ceiling: at least 12,000 feet AGL
Clouds: sky clear below 12,000 feet AGL
Weather: no significant weather observed at this time

METAR text: UHWW 231530Z VRB01MPS 9999 NSC 10/08 Q1011 R25L/0///70 NOSIG RMK QFE757
Conditions at: UHWW (VLADIVOSTOK , RU) observed 1530 UTC 23 May 2022
Temperature: 10.0°C (50°F)
Dewpoint: 8.0°C (46°F) [RH = 87%]
Pressure (altimeter): 29.85 inches Hg (1011.0 mb)
Winds: variable direction winds at 2 MPH (2 knots; 1.0 m/s)
Visibility: 6 or more miles (10+ km)
Ceiling: at least 12,000 feet AGL
Clouds: sky clear below 12,000 feet AGL
Weather: no significant weather observed at this time

METAR text: UHWW 231500Z 07002MPS 9999 NSC 09/08 Q1012 R25L/0///70 NOSIG RMK QFE757
Conditions at: UHWW (VLADIVOSTOK , RU) observed 1500 UTC 23 May 2022
Temperature: 9.0°C (48°F)
Dewpoint: 8.0°C (46°F) [RH = 93%]
Pressure (altimeter): 29.88 inches Hg (1012.0 mb)
Winds: from the ENE (70 degrees) at 5 MPH (4 knots; 2.1 m/s)
Visibility: 6 or more miles (10+ km)
Ceiling: at least 12,000 feet AGL
Clouds: sky clear below 12,000 feet AGL
Weather: no significant weather observed at this time

METAR text: UHWW 231430Z 07003MPS 9999 NSC 09/08 Q1012 R25L/0///70 NOSIG RMK QFE758
Conditions at: UHWW (VLADIVOSTOK , RU) observed 1430 UTC 23 May 2022
Temperature: 9.0°C (48°F)
Dewpoint: 8.0°C (46°F) [RH = 93%]
Pressure (altimeter): 29.88 inches Hg (1012.0 mb)
Winds: from the ENE (70 degrees) at 7 MPH (6 knots; 3.1 m/s)
Visibility: 6 or more miles (10+ km)
Ceiling: at least 12,000 feet AGL
Clouds: sky clear below 12,000 feet AGL
Weather: no significant weather observed at this time

METAR text: UHWW 231400Z 05001MPS 9999 NSC 11/09 Q1012 R25L/0///70 NOSIG RMK QFE758
Conditions at: UHWW (VLADIVOSTOK , RU) observed 1400 UTC 23 May 2022
Temperature: 11.0°C (52°F)
Dewpoint: 9.0°C (48°F) [RH = 87%]
Pressure (altimeter): 29.88 inches Hg (1012.0 mb)
Winds: from the NE (50 degrees) at 2 MPH (2 knots; 1.0 m/s)
Visibility: 6 or more miles (10+ km)
Ceiling: at least 12,000 feet AGL
Clouds: sky clear below 12,000 feet AGL
Weather: no significant weather observed at this time

METAR text: UHWW 231330Z 00000MPS 9999 NSC 11/09 Q1012 R25L/0///70 NOSIG RMK QFE758
Conditions at: UHWW (VLADIVOSTOK , RU) observed 1330 UTC 23 May 2022
Temperature: 11.0°C (52°F)
Dewpoint: 9.0°C (48°F) [RH = 87%]
Pressure (altimeter): 29.88 inches Hg (1012.0 mb)
Winds: calm
Visibility: 6 or more miles (10+ km)
Ceiling: at least 12,000 feet AGL
Clouds: sky clear below 12,000 feet AGL
Weather: no significant weather observed at this time

METAR text: UHWW 231300Z 24002MPS 9999 NSC 11/08 Q1012 R25L/0///70 NOSIG RMK QFE758
Conditions at: UHWW (VLADIVOSTOK , RU) observed 1300 UTC 23 May 2022
Temperature: 11.0°C (52°F)
Dewpoint: 8.0°C (46°F) [RH = 82%]
Pressure (altimeter): 29.88 inches Hg (1012.0 mb)
Winds: from the WSW (240 degrees) at 5 MPH (4 knots; 2.1 m/s)
Visibility: 6 or more miles (10+ km)
Ceiling: at least 12,000 feet AGL
Clouds: sky clear below 12,000 feet AGL
Weather: no significant weather observed at this time

METAR text: UHWW 231230Z 25002MPS 9999 NSC 11/08 Q1012 R25L/0///70 NOSIG RMK QFE758
Conditions at: UHWW (VLADIVOSTOK , RU) observed 1230 UTC 23 May 2022
Temperature: 11.0°C (52°F)
Dewpoint: 8.0°C (46°F) [RH = 82%]
Pressure (altimeter): 29.88 inches Hg (1012.0 mb)
Winds: from the WSW (250 degrees) at 5 MPH (4 knots; 2.1 m/s)
Visibility: 6 or more miles (10+ km)
Ceiling: at least 12,000 feet AGL
Clouds: sky clear below 12,000 feet AGL
Weather: no significant weather observed at this time

METAR text: UHWW 231200Z 27002MPS 9999 NSC 11/08 Q1012 R25L/0///70 NOSIG RMK QFE758
Conditions at: UHWW (VLADIVOSTOK , RU) observed 1200 UTC 23 May 2022
Temperature: 11.0°C (52°F)
Dewpoint: 8.0°C (46°F) [RH = 82%]
Pressure (altimeter): 29.88 inches Hg (1012.0 mb)
Winds: from the W (270 degrees) at 5 MPH (4 knots; 2.1 m/s)
Visibility: 6 or more miles (10+ km)
Ceiling: at least 12,000 feet AGL
Clouds: sky clear below 12,000 feet AGL
Weather: no significant weather observed at this time

METAR text: UHWW 231130Z 27001MPS 9999 NSC 11/08 Q1012 R25L/0///70 NOSIG RMK QFE758
Conditions at: UHWW (VLADIVOSTOK , RU) observed 1130 UTC 23 May 2022
Temperature: 11.0°C (52°F)
Dewpoint: 8.0°C (46°F) [RH = 82%]
Pressure (altimeter): 29.88 inches Hg (1012.0 mb)
Winds: from the W (270 degrees) at 2 MPH (2 knots; 1.0 m/s)
Visibility: 6 or more miles (10+ km)
Ceiling: at least 12,000 feet AGL
Clouds: sky clear below 12,000 feet AGL
Weather: no significant weather observed at this time

METAR text: UHWW 231100Z 23004MPS 9999 NSC 13/09 Q1011 R25L/0///70 NOSIG RMK QFE757
Conditions at: UHWW (VLADIVOSTOK , RU) observed 1100 UTC 23 May 2022
Temperature: 13.0°C (55°F)
Dewpoint: 9.0°C (48°F) [RH = 77%]
Pressure (altimeter): 29.85 inches Hg (1011.0 mb)
Winds: from the SW (230 degrees) at 9 MPH (8 knots; 4.1 m/s)
Visibility: 6 or more miles (10+ km)
Ceiling: at least 12,000 feet AGL
Clouds: sky clear below 12,000 feet AGL
Weather: no significant weather observed at this time

METAR text: UHWW 231030Z 23005MPS 9999 NSC 14/09 Q1011 R25L/0///70 NOSIG RMK QFE757
Conditions at: UHWW (VLADIVOSTOK , RU) observed 1030 UTC 23 May 2022
Temperature: 14.0°C (57°F)
Dewpoint: 9.0°C (48°F) [RH = 72%]
Pressure (altimeter): 29.85 inches Hg (1011.0 mb)
Winds: from the SW (230 degrees) at 12 MPH (10 knots; 5.1 m/s)
Visibility: 6 or more miles (10+ km)
Ceiling: at least 12,000 feet AGL
Clouds: sky clear below 12,000 feet AGL
Weather: no significant weather observed at this time

METAR text: UHWW 231000Z 24005MPS 9999 NSC 14/09 Q1011 R25L/0///70 NOSIG RMK QFE757
Conditions at: UHWW (VLADIVOSTOK , RU) observed 1000 UTC 23 May 2022
Temperature: 14.0°C (57°F)
Dewpoint: 9.0°C (48°F) [RH = 72%]
Pressure (altimeter): 29.85 inches Hg (1011.0 mb)
Winds: from the WSW (240 degrees) at 12 MPH (10 knots; 5.1 m/s)
Visibility: 6 or more miles (10+ km)
Ceiling: at least 12,000 feet AGL
Clouds: sky clear below 12,000 feet AGL
Weather: no significant weather observed at this time

METAR text: UHWW 230930Z 24005MPS 9999 NSC 15/09 Q1011 R25L/0///70 NOSIG RMK QFE757
Conditions at: UHWW (VLADIVOSTOK , RU) observed 0930 UTC 23 May 2022
Temperature: 15.0°C (59°F)
Dewpoint: 9.0°C (48°F) [RH = 67%]
Pressure (altimeter): 29.85 inches Hg (1011.0 mb)
Winds: from the WSW (240 degrees) at 12 MPH (10 knots; 5.1 m/s)
Visibility: 6 or more miles (10+ km)
Ceiling: at least 12,000 feet AGL
Clouds: sky clear below 12,000 feet AGL
Weather: no significant weather observed at this time

METAR text: UHWW 230900Z 24006MPS 9999 NSC 15/09 Q1011 R25L/0///70 NOSIG RMK QFE757
Conditions at: UHWW (VLADIVOSTOK , RU) observed 0900 UTC 23 May 2022
Temperature: 15.0°C (59°F)
Dewpoint: 9.0°C (48°F) [RH = 67%]
Pressure (altimeter): 29.85 inches Hg (1011.0 mb)
Winds: from the WSW (240 degrees) at 14 MPH (12 knots; 6.2 m/s)
Visibility: 6 or more miles (10+ km)
Ceiling: at least 12,000 feet AGL
Clouds: sky clear below 12,000 feet AGL
Weather: no significant weather observed at this time

METAR text: UHWW 230830Z 24007MPS 9999 NSC 16/09 Q1011 R25L/0///70 NOSIG RMK QFE757
Conditions at: UHWW (VLADIVOSTOK , RU) observed 0830 UTC 23 May 2022
Temperature: 16.0°C (61°F)
Dewpoint: 9.0°C (48°F) [RH = 63%]
Pressure (altimeter): 29.85 inches Hg (1011.0 mb)
Winds: from the WSW (240 degrees) at 16 MPH (14 knots; 7.2 m/s)
Visibility: 6 or more miles (10+ km)
Ceiling: at least 12,000 feet AGL
Clouds: sky clear below 12,000 feet AGL
Weather: no significant weather observed at this time

METAR text: UHWW 230800Z 24008MPS 9999 NSC 17/09 Q1011 R25L/0///70 NOSIG RMK QFE757
Conditions at: UHWW (VLADIVOSTOK , RU) observed 0800 UTC 23 May 2022
Temperature: 17.0°C (63°F)
Dewpoint: 9.0°C (48°F) [RH = 59%]
Pressure (altimeter): 29.85 inches Hg (1011.0 mb)
Winds: from the WSW (240 degrees) at 18 MPH (16 knots; 8.2 m/s)
Visibility: 6 or more miles (10+ km)
Ceiling: at least 12,000 feet AGL
Clouds: sky clear below 12,000 feet AGL
Weather: no significant weather observed at this time

METAR text: UHWW 230730Z 23007MPS 9999 NSC 18/09 Q1011 R25L/0///70 NOSIG RMK QFE757
Conditions at: UHWW (VLADIVOSTOK , RU) observed 0730 UTC 23 May 2022
Temperature: 18.0°C (64°F)
Dewpoint: 9.0°C (48°F) [RH = 56%]
Pressure (altimeter): 29.85 inches Hg (1011.0 mb)
Winds: from the SW (230 degrees) at 16 MPH (14 knots; 7.2 m/s)
Visibility: 6 or more miles (10+ km)
Ceiling: at least 12,000 feet AGL
Clouds: sky clear below 12,000 feet AGL
Weather: no significant weather observed at this time

METAR text: UHWW 230700Z 23007MPS 9999 NSC 19/09 Q1011 R25L/0///70 NOSIG RMK QFE757
Conditions at: UHWW (VLADIVOSTOK , RU) observed 0700 UTC 23 May 2022
Temperature: 19.0°C (66°F)
Dewpoint: 9.0°C (48°F) [RH = 52%]
Pressure (altimeter): 29.85 inches Hg (1011.0 mb)
Winds: from the SW (230 degrees) at 16 MPH (14 knots; 7.2 m/s)
Visibility: 6 or more miles (10+ km)
Ceiling: at least 12,000 feet AGL
Clouds: sky clear below 12,000 feet AGL
Weather: no significant weather observed at this time

METAR text: UHWW 230630Z 20006MPS 9999 NSC 19/09 Q1010 R25L/0///70 NOSIG RMK QFE757
Conditions at: UHWW (VLADIVOSTOK , RU) observed 0630 UTC 23 May 2022
Temperature: 19.0°C (66°F)
Dewpoint: 9.0°C (48°F) [RH = 52%]
Pressure (altimeter): 29.82 inches Hg (1010.0 mb)
Winds: from the SSW (200 degrees) at 14 MPH (12 knots; 6.2 m/s)
Visibility: 6 or more miles (10+ km)
Ceiling: at least 12,000 feet AGL
Clouds: sky clear below 12,000 feet AGL
Weather: no significant weather observed at this time

METAR text: UHWW 230600Z 20006MPS 9999 NSC 19/09 Q1010 R25L/0///70 NOSIG RMK QFE757
Conditions at: UHWW (VLADIVOSTOK , RU) observed 0600 UTC 23 May 2022
Temperature: 19.0°C (66°F)
Dewpoint: 9.0°C (48°F) [RH = 52%]
Pressure (altimeter): 29.82 inches Hg (1010.0 mb)
Winds: from the SSW (200 degrees) at 14 MPH (12 knots; 6.2 m/s)
Visibility: 6 or more miles (10+ km)
Ceiling: at least 12,000 feet AGL
Clouds: sky clear below 12,000 feet AGL
Weather: no significant weather observed at this time

METAR text: UHWW 230530Z 21007MPS 9999 NSC 19/09 Q1011 R25L/0///70 NOSIG RMK QFE757
Conditions at: UHWW (VLADIVOSTOK , RU) observed 0530 UTC 23 May 2022
Temperature: 19.0°C (66°F)
Dewpoint: 9.0°C (48°F) [RH = 52%]
Pressure (altimeter): 29.85 inches Hg (1011.0 mb)
Winds: from the SSW (210 degrees) at 16 MPH (14 knots; 7.2 m/s)
Visibility: 6 or more miles (10+ km)
Ceiling: at least 12,000 feet AGL
Clouds: sky clear below 12,000 feet AGL
Weather: no significant weather observed at this time

METAR text: UHWW 230500Z 20008MPS 9999 NSC 20/09 Q1010 R25L/0///70 NOSIG RMK QFE757
Conditions at: UHWW (VLADIVOSTOK , RU) observed 0500 UTC 23 May 2022
Temperature: 20.0°C (68°F)
Dewpoint: 9.0°C (48°F) [RH = 49%]
Pressure (altimeter): 29.82 inches Hg (1010.0 mb)
Winds: from the SSW (200 degrees) at 18 MPH (16 knots; 8.2 m/s)
Visibility: 6 or more miles (10+ km)
Ceiling: at least 12,000 feet AGL
Clouds: sky clear below 12,000 feet AGL
Weather: no significant weather observed at this time

METAR text: UHWW 230430Z 20007MPS 9999 NSC 20/09 Q1010 R25L/0///70 NOSIG RMK QFE756
Conditions at: UHWW (VLADIVOSTOK , RU) observed 0430 UTC 23 May 2022
Temperature: 20.0°C (68°F)
Dewpoint: 9.0°C (48°F) [RH = 49%]
Pressure (altimeter): 29.82 inches Hg (1010.0 mb)
Winds: from the SSW (200 degrees) at 16 MPH (14 knots; 7.2 m/s)
Visibility: 6 or more miles (10+ km)
Ceiling: at least 12,000 feet AGL
Clouds: sky clear below 12,000 feet AGL
Weather: no significant weather observed at this time

METAR text: UHWW 230400Z 23007MPS 9999 NSC 21/10 Q1010 R25L/0///70 NOSIG RMK QFE756
Conditions at: UHWW (VLADIVOSTOK , RU) observed 0400 UTC 23 May 2022
Temperature: 21.0°C (70°F)
Dewpoint: 10.0°C (50°F) [RH = 49%]
Pressure (altimeter): 29.82 inches Hg (1010.0 mb)
Winds: from the SW (230 degrees) at 16 MPH (14 knots; 7.2 m/s)
Visibility: 6 or more miles (10+ km)
Ceiling: at least 12,000 feet AGL
Clouds: sky clear below 12,000 feet AGL
Weather: no significant weather observed at this time

METAR text: UHWW 230330Z 22007MPS 9999 NSC 21/09 Q1010 R25L/0///70 NOSIG RMK QFE756
Conditions at: UHWW (VLADIVOSTOK , RU) observed 0330 UTC 23 May 2022
Temperature: 21.0°C (70°F)
Dewpoint: 9.0°C (48°F) [RH = 46%]
Pressure (altimeter): 29.82 inches Hg (1010.0 mb)
Winds: from the SW (220 degrees) at 16 MPH (14 knots; 7.2 m/s)
Visibility: 6 or more miles (10+ km)
Ceiling: at least 12,000 feet AGL
Clouds: sky clear below 12,000 feet AGL
Weather: no significant weather observed at this time

METAR text: UHWW 230300Z 23008MPS 9999 NSC 22/09 Q1010 R25L/0///70 NOSIG RMK QFE756
Conditions at: UHWW (VLADIVOSTOK , RU) observed 0300 UTC 23 May 2022
Temperature: 22.0°C (72°F)
Dewpoint: 9.0°C (48°F) [RH = 43%]
Pressure (altimeter): 29.82 inches Hg (1010.0 mb)
Winds: from the SW (230 degrees) at 18 MPH (16 knots; 8.2 m/s)
Visibility: 6 or more miles (10+ km)
Ceiling: at least 12,000 feet AGL
Clouds: sky clear below 12,000 feet AGL
Weather: no significant weather observed at this time

METAR text: UHWW 230230Z 21005MPS 9999 NSC 23/07 Q1010 R25L/0///70 NOSIG RMK QFE756
Conditions at: UHWW (VLADIVOSTOK , RU) observed 0230 UTC 23 May 2022
Temperature: 23.0°C (73°F)
Dewpoint: 7.0°C (45°F) [RH = 36%]
Pressure (altimeter): 29.82 inches Hg (1010.0 mb)
Winds: from the SSW (210 degrees) at 12 MPH (10 knots; 5.1 m/s)
Visibility: 6 or more miles (10+ km)
Ceiling: at least 12,000 feet AGL
Clouds: sky clear below 12,000 feet AGL
Weather: no significant weather observed at this time

METAR text: UHWW 230200Z 20002MPS 160V280 9999 NSC 23/11 Q1010 R25L/0///70 NOSIG RMK QFE756
Conditions at: UHWW (VLADIVOSTOK , RU) observed 0200 UTC 23 May 2022
Temperature: 23.0°C (73°F)
Dewpoint: 11.0°C (52°F) [RH = 47%]
Pressure (altimeter): 29.82 inches Hg (1010.0 mb)
Winds: from the SSW (200 degrees) at 5 MPH (4 knots; 2.1 m/s)
Visibility: 6 or more miles (10+ km)
Ceiling: at least 12,000 feet AGL
Clouds: sky clear below 12,000 feet AGL
Weather: no significant weather observed at this time

METAR text: UHWW 230130Z 24002MPS 180V340 9999 NSC 23/12 Q1010 R25L/0///70 NOSIG RMK QFE756
Conditions at: UHWW (VLADIVOSTOK , RU) observed 0130 UTC 23 May 2022
Temperature: 23.0°C (73°F)
Dewpoint: 12.0°C (54°F) [RH = 50%]
Pressure (altimeter): 29.82 inches Hg (1010.0 mb)
Winds: from the WSW (240 degrees) at 5 MPH (4 knots; 2.1 m/s)
Visibility: 6 or more miles (10+ km)
Ceiling: at least 12,000 feet AGL
Clouds: sky clear below 12,000 feet AGL
Weather: no significant weather observed at this time

METAR text: UHWW 230100Z VRB01MPS 9999 NSC 21/11 Q1010 R25L/0///70 NOSIG RMK QFE756
Conditions at: UHWW (VLADIVOSTOK , RU) observed 0100 UTC 23 May 2022
Temperature: 21.0°C (70°F)
Dewpoint: 11.0°C (52°F) [RH = 53%]
Pressure (altimeter): 29.82 inches Hg (1010.0 mb)
Winds: variable direction winds at 2 MPH (2 knots; 1.0 m/s)
Visibility: 6 or more miles (10+ km)
Ceiling: at least 12,000 feet AGL
Clouds: sky clear below 12,000 feet AGL
Weather: no significant weather observed at this time

METAR text: UHWW 230030Z VRB01MPS 9999 NSC 21/11 Q1010 R25L/0///70 NOSIG RMK QFE756
Conditions at: UHWW (VLADIVOSTOK , RU) observed 0030 UTC 23 May 2022
Temperature: 21.0°C (70°F)
Dewpoint: 11.0°C (52°F) [RH = 53%]
Pressure (altimeter): 29.82 inches Hg (1010.0 mb)
Winds: variable direction winds at 2 MPH (2 knots; 1.0 m/s)
Visibility: 6 or more miles (10+ km)
Ceiling: at least 12,000 feet AGL
Clouds: sky clear below 12,000 feet AGL
Weather: no significant weather observed at this time

METAR text: UHWW 230000Z VRB01MPS 9999 NSC 19/11 Q1010 R25L/0///70 NOSIG RMK QFE756
Conditions at: UHWW (VLADIVOSTOK , RU) observed 0000 UTC 23 May 2022
Temperature: 19.0°C (66°F)
Dewpoint: 11.0°C (52°F) [RH = 60%]
Pressure (altimeter): 29.82 inches Hg (1010.0 mb)
Winds: variable direction winds at 2 MPH (2 knots; 1.0 m/s)
Visibility: 6 or more miles (10+ km)
Ceiling: at least 12,000 feet AGL
Clouds: sky clear below 12,000 feet AGL
Weather: no significant weather observed at this time

METAR text: UHWW 222330Z VRB01MPS 9999 NSC 17/10 Q1010 R25L/0///70 NOSIG RMK QFE756
Conditions at: UHWW (VLADIVOSTOK , RU) observed 2330 UTC 22 May 2022
Temperature: 17.0°C (63°F)
Dewpoint: 10.0°C (50°F) [RH = 63%]
Pressure (altimeter): 29.82 inches Hg (1010.0 mb)
Winds: variable direction winds at 2 MPH (2 knots; 1.0 m/s)
Visibility: 6 or more miles (10+ km)
Ceiling: at least 12,000 feet AGL
Clouds: sky clear below 12,000 feet AGL
Weather: no significant weather observed at this time

METAR text: UHWW 222300Z VRB01MPS 9999 NSC 15/10 Q1010 R25L/0///70 NOSIG RMK QFE757
Conditions at: UHWW (VLADIVOSTOK , RU) observed 2300 UTC 22 May 2022
Temperature: 15.0°C (59°F)
Dewpoint: 10.0°C (50°F) [RH = 72%]
Pressure (altimeter): 29.82 inches Hg (1010.0 mb)
Winds: variable direction winds at 2 MPH (2 knots; 1.0 m/s)
Visibility: 6 or more miles (10+ km)
Ceiling: at least 12,000 feet AGL
Clouds: sky clear below 12,000 feet AGL
Weather: no significant weather observed at this time

METAR text: UHWW 222230Z VRB01MPS 9999 NSC 14/10 Q1010 R25L/0///70 NOSIG RMK QFE757
Conditions at: UHWW (VLADIVOSTOK , RU) observed 2230 UTC 22 May 2022
Temperature: 14.0°C (57°F)
Dewpoint: 10.0°C (50°F) [RH = 77%]
Pressure (altimeter): 29.82 inches Hg (1010.0 mb)
Winds: variable direction winds at 2 MPH (2 knots; 1.0 m/s)
Visibility: 6 or more miles (10+ km)
Ceiling: at least 12,000 feet AGL
Clouds: sky clear below 12,000 feet AGL
Weather: no significant weather observed at this time

METAR text: UHWW 222200Z 03001MPS 9999 NSC 12/10 Q1010 R25L/0///70 NOSIG RMK QFE757
Conditions at: UHWW (VLADIVOSTOK , RU) observed 2200 UTC 22 May 2022
Temperature: 12.0°C (54°F)
Dewpoint: 10.0°C (50°F) [RH = 88%]
Pressure (altimeter): 29.82 inches Hg (1010.0 mb)
Winds: from the NNE (30 degrees) at 2 MPH (2 knots; 1.0 m/s)
Visibility: 6 or more miles (10+ km)
Ceiling: at least 12,000 feet AGL
Clouds: sky clear below 12,000 feet AGL
Weather: no significant weather observed at this time

METAR text: UHWW 222130Z 00000MPS 9999 NSC 10/09 Q1010 R25L/0///70 NOSIG RMK QFE756
Conditions at: UHWW (VLADIVOSTOK , RU) observed 2130 UTC 22 May 2022
Temperature: 10.0°C (50°F)
Dewpoint: 9.0°C (48°F) [RH = 93%]
Pressure (altimeter): 29.82 inches Hg (1010.0 mb)
Winds: calm
Visibility: 6 or more miles (10+ km)
Ceiling: at least 12,000 feet AGL
Clouds: sky clear below 12,000 feet AGL
Weather: no significant weather observed at this time

METAR text: UHWW 222100Z 00000MPS 9999 NSC 08/07 Q1010 R25L/0///70 NOSIG RMK QFE756
Conditions at: UHWW (VLADIVOSTOK , RU) observed 2100 UTC 22 May 2022
Temperature: 8.0°C (46°F)
Dewpoint: 7.0°C (45°F) [RH = 93%]
Pressure (altimeter): 29.82 inches Hg (1010.0 mb)
Winds: calm
Visibility: 6 or more miles (10+ km)
Ceiling: at least 12,000 feet AGL
Clouds: sky clear below 12,000 feet AGL
Weather: no significant weather observed at this time

METAR text: UHWW 222030Z 00000MPS 9999 NSC 06/05 Q1010 R25L/0///70 NOSIG RMK QFE756
Conditions at: UHWW (VLADIVOSTOK , RU) observed 2030 UTC 22 May 2022
Temperature: 6.0°C (43°F)
Dewpoint: 5.0°C (41°F) [RH = 93%]
Pressure (altimeter): 29.82 inches Hg (1010.0 mb)
Winds: calm
Visibility: 6 or more miles (10+ km)
Ceiling: at least 12,000 feet AGL
Clouds: sky clear below 12,000 feet AGL
Weather: no significant weather observed at this time

METAR text: UHWW 222000Z 00000MPS 9999 BCFG FEW002 06/06 Q1010 R25L/0///70 NOSIG RMK QFE756
Conditions at: UHWW (VLADIVOSTOK , RU) observed 2000 UTC 22 May 2022
Temperature: 6.0°C (43°F)
Dewpoint: 6.0°C (43°F) [RH = 100%]
Pressure (altimeter): 29.82 inches Hg (1010.0 mb)
Winds: calm
Visibility: 6 or more miles (10+ km)
Ceiling: at least 12,000 feet AGL
Clouds: few clouds at 200 feet AGL
Weather: BCFG  (patches of fog)

METAR text: UHWW 221930Z 36001MPS 9999 BCFG FEW002 06/05 Q1010 R25L/0///70 NOSIG RMK QFE756
Conditions at: UHWW (VLADIVOSTOK , RU) observed 1930 UTC 22 May 2022
Temperature: 6.0°C (43°F)
Dewpoint: 5.0°C (41°F) [RH = 93%]
Pressure (altimeter): 29.82 inches Hg (1010.0 mb)
Winds: from the N (360 degrees) at 2 MPH (2 knots; 1.0 m/s)
Visibility: 6 or more miles (10+ km)
Ceiling: at least 12,000 feet AGL
Clouds: few clouds at 200 feet AGL
Weather: BCFG  (patches of fog)

METAR text: UHWW 221900Z 00000MPS 9000 BCFG NSC 06/06 Q1009 R25L/0///70 NOSIG RMK QFE756
Conditions at: UHWW (VLADIVOSTOK , RU) observed 1900 UTC 22 May 2022
Temperature: 6.0°C (43°F)
Dewpoint: 6.0°C (43°F) [RH = 100%]
Pressure (altimeter): 29.79 inches Hg (1009.0 mb)
Winds: calm
Visibility: 6 miles ( 9 km)
Ceiling: at least 12,000 feet AGL
Clouds: sky clear below 12,000 feet AGL
Weather: BCFG  (patches of fog)

METAR text: UHWW 221830Z 03002MPS 9999 BCFG NSC 06/06 Q1009 R25L/0///70 NOSIG RMK QFE756
Conditions at: UHWW (VLADIVOSTOK , RU) observed 1830 UTC 22 May 2022
Temperature: 6.0°C (43°F)
Dewpoint: 6.0°C (43°F) [RH = 100%]
Pressure (altimeter): 29.79 inches Hg (1009.0 mb)
Winds: from the NNE (30 degrees) at 5 MPH (4 knots; 2.1 m/s)
Visibility: 6 or more miles (10+ km)
Ceiling: at least 12,000 feet AGL
Clouds: sky clear below 12,000 feet AGL
Weather: BCFG  (patches of fog)

METAR text: UHWW 221800Z 00000MPS 9999 NSC 07/05 Q1009 R25L/0///70 NOSIG RMK QFE756
Conditions at: UHWW (VLADIVOSTOK , RU) observed 1800 UTC 22 May 2022
Temperature: 7.0°C (45°F)
Dewpoint: 5.0°C (41°F) [RH = 87%]
Pressure (altimeter): 29.79 inches Hg (1009.0 mb)
Winds: calm
Visibility: 6 or more miles (10+ km)
Ceiling: at least 12,000 feet AGL
Clouds: sky clear below 12,000 feet AGL
Weather: no significant weather observed at this time

METAR text: UHWW 221730Z 00000MPS 9999 NSC 07/06 Q1009 R25L/0///70 NOSIG RMK QFE756
Conditions at: UHWW (VLADIVOSTOK , RU) observed 1730 UTC 22 May 2022
Temperature: 7.0°C (45°F)
Dewpoint: 6.0°C (43°F) [RH = 93%]
Pressure (altimeter): 29.79 inches Hg (1009.0 mb)
Winds: calm
Visibility: 6 or more miles (10+ km)
Ceiling: at least 12,000 feet AGL
Clouds: sky clear below 12,000 feet AGL
Weather: no significant weather observed at this time

METAR text: UHWW 221700Z 04001MPS 9999 NSC 07/06 Q1009 R25L/0///70 NOSIG RMK QFE755
Conditions at: UHWW (VLADIVOSTOK , RU) observed 1700 UTC 22 May 2022
Temperature: 7.0°C (45°F)
Dewpoint: 6.0°C (43°F) [RH = 93%]
Pressure (altimeter): 29.79 inches Hg (1009.0 mb)
Winds: from the NE (40 degrees) at 2 MPH (2 knots; 1.0 m/s)
Visibility: 6 or more miles (10+ km)
Ceiling: at least 12,000 feet AGL
Clouds: sky clear below 12,000 feet AGL
Weather: no significant weather observed at this time

METAR text: UHWW 221630Z 00000MPS 9999 NSC 07/06 Q1009 R25L/0///70 NOSIG RMK QFE755
Conditions at: UHWW (VLADIVOSTOK , RU) observed 1630 UTC 22 May 2022
Temperature: 7.0°C (45°F)
Dewpoint: 6.0°C (43°F) [RH = 93%]
Pressure (altimeter): 29.79 inches Hg (1009.0 mb)
Winds: calm
Visibility: 6 or more miles (10+ km)
Ceiling: at least 12,000 feet AGL
Clouds: sky clear below 12,000 feet AGL
Weather: no significant weather observed at this time

METAR text: UHWW 221600Z 09001MPS 9999 NSC 09/07 Q1008 R25L/0///70 NOSIG RMK QFE755
Conditions at: UHWW (VLADIVOSTOK , RU) observed 1600 UTC 22 May 2022
Temperature: 9.0°C (48°F)
Dewpoint: 7.0°C (45°F) [RH = 87%]
Pressure (altimeter): 29.76 inches Hg (1008.0 mb)
Winds: from the E (90 degrees) at 2 MPH (2 knots; 1.0 m/s)
Visibility: 6 or more miles (10+ km)
Ceiling: at least 12,000 feet AGL
Clouds: sky clear below 12,000 feet AGL
Weather: no significant weather observed at this time

METAR text: UHWW 221530Z 00000MPS 9999 NSC 10/08 Q1008 R25L/0///70 NOSIG RMK QFE755
Conditions at: UHWW (VLADIVOSTOK , RU) observed 1530 UTC 22 May 2022
Temperature: 10.0°C (50°F)
Dewpoint: 8.0°C (46°F) [RH = 87%]
Pressure (altimeter): 29.76 inches Hg (1008.0 mb)
Winds: calm
Visibility: 6 or more miles (10+ km)
Ceiling: at least 12,000 feet AGL
Clouds: sky clear below 12,000 feet AGL
Weather: no significant weather observed at this time

METAR text: UHWW 221500Z 00000MPS 9999 NSC 10/08 Q1008 R25L/0///70 NOSIG RMK QFE755
Conditions at: UHWW (VLADIVOSTOK , RU) observed 1500 UTC 22 May 2022
Temperature: 10.0°C (50°F)
Dewpoint: 8.0°C (46°F) [RH = 87%]
Pressure (altimeter): 29.76 inches Hg (1008.0 mb)
Winds: calm
Visibility: 6 or more miles (10+ km)
Ceiling: at least 12,000 feet AGL
Clouds: sky clear below 12,000 feet AGL
Weather: no significant weather observed at this time

METAR text: UHWW 221430Z 01002MPS 9999 NSC 10/08 Q1008 R25L/0///70 NOSIG RMK QFE755
Conditions at: UHWW (VLADIVOSTOK , RU) observed 1430 UTC 22 May 2022
Temperature: 10.0°C (50°F)
Dewpoint: 8.0°C (46°F) [RH = 87%]
Pressure (altimeter): 29.76 inches Hg (1008.0 mb)
Winds: from the N (10 degrees) at 5 MPH (4 knots; 2.1 m/s)
Visibility: 6 or more miles (10+ km)
Ceiling: at least 12,000 feet AGL
Clouds: sky clear below 12,000 feet AGL
Weather: no significant weather observed at this time

METAR text: UHWW 221400Z 00000MPS 9999 NSC 11/07 Q1008 R25L/0///70 NOSIG RMK QFE755
Conditions at: UHWW (VLADIVOSTOK , RU) observed 1400 UTC 22 May 2022
Temperature: 11.0°C (52°F)
Dewpoint: 7.0°C (45°F) [RH = 76%]
Pressure (altimeter): 29.76 inches Hg (1008.0 mb)
Winds: calm
Visibility: 6 or more miles (10+ km)
Ceiling: at least 12,000 feet AGL
Clouds: sky clear below 12,000 feet AGL
Weather: no significant weather observed at this time

METAR text: UHWW 221330Z VRB01MPS 9999 NSC 13/08 Q1008 R25L/0///70 NOSIG RMK QFE755
Conditions at: UHWW (VLADIVOSTOK , RU) observed 1330 UTC 22 May 2022
Temperature: 13.0°C (55°F)
Dewpoint: 8.0°C (46°F) [RH = 72%]
Pressure (altimeter): 29.76 inches Hg (1008.0 mb)
Winds: variable direction winds at 2 MPH (2 knots; 1.0 m/s)
Visibility: 6 or more miles (10+ km)
Ceiling: at least 12,000 feet AGL
Clouds: sky clear below 12,000 feet AGL
Weather: no significant weather observed at this time

METAR text: UHWW 221300Z 04002MPS 9999 NSC 12/08 Q1007 R25L/0///70 NOSIG RMK QFE754
Conditions at: UHWW (VLADIVOSTOK , RU) observed 1300 UTC 22 May 2022
Temperature: 12.0°C (54°F)
Dewpoint: 8.0°C (46°F) [RH = 76%]
Pressure (altimeter): 29.73 inches Hg (1007.0 mb)
Winds: from the NE (40 degrees) at 5 MPH (4 knots; 2.1 m/s)
Visibility: 6 or more miles (10+ km)
Ceiling: at least 12,000 feet AGL
Clouds: sky clear below 12,000 feet AGL
Weather: no significant weather observed at this time

METAR text: UHWW 221230Z 36003MPS 350V060 9999 NSC 15/07 Q1007 R25L/0///70 NOSIG RMK QFE754
Conditions at: UHWW (VLADIVOSTOK , RU) observed 1230 UTC 22 May 2022
Temperature: 15.0°C (59°F)
Dewpoint: 7.0°C (45°F) [RH = 59%]
Pressure (altimeter): 29.73 inches Hg (1007.0 mb)
Winds: from the N (360 degrees) at 7 MPH (6 knots; 3.1 m/s)
Visibility: 6 or more miles (10+ km)
Ceiling: at least 12,000 feet AGL
Clouds: sky clear below 12,000 feet AGL
Weather: no significant weather observed at this time

METAR text: UHWW 221200Z 36003MPS 9999 NSC 15/07 Q1007 R25L/0///70 NOSIG RMK QFE754
Conditions at: UHWW (VLADIVOSTOK , RU) observed 1200 UTC 22 May 2022
Temperature: 15.0°C (59°F)
Dewpoint: 7.0°C (45°F) [RH = 59%]
Pressure (altimeter): 29.73 inches Hg (1007.0 mb)
Winds: from the N (360 degrees) at 7 MPH (6 knots; 3.1 m/s)
Visibility: 6 or more miles (10+ km)
Ceiling: at least 12,000 feet AGL
Clouds: sky clear below 12,000 feet AGL
Weather: no significant weather observed at this time

METAR text: UHWW 221130Z 35003MPS 9999 NSC 17/07 Q1007 R25L/0///70 NOSIG RMK QFE754
Conditions at: UHWW (VLADIVOSTOK , RU) observed 1130 UTC 22 May 2022
Temperature: 17.0°C (63°F)
Dewpoint: 7.0°C (45°F) [RH = 52%]
Pressure (altimeter): 29.73 inches Hg (1007.0 mb)
Winds: from the N (350 degrees) at 7 MPH (6 knots; 3.1 m/s)
Visibility: 6 or more miles (10+ km)
Ceiling: at least 12,000 feet AGL
Clouds: sky clear below 12,000 feet AGL
Weather: no significant weather observed at this time

Forecast for: UHWW (VLADIVOSTOK , RU)
Text: TAF UHWW 232300Z 2400/2424 22003G08MPS 6000 -SHRA BKN020CB
Forecast period: 0000 UTC 24 May 2022 to 0000 UTC 25 May 2022
Forecast type: FROM: standard forecast or significant change
Winds: from the SW (220 degrees) at 7 MPH (6 knots; 3.1 m/s)
gusting to 18 MPH (16 knots; 8.2 m/s)
Visibility: 4 miles (6 km)
Ceiling: 2000 feet AGL
Clouds: broken clouds at 2000 feet AGL
Weather: -SHRA  (light rain showers)
Text: TEMPO 2400/2412 VRB15MPS -TSRA BKN016CB
Forecast period: 0000 to 1200 UTC 24 May 2022
Forecast type: TEMPORARY: The following changes expected for less than half the time period
Winds: variable direction winds at 33 MPH (29 knots; 14.9 m/s)
Visibility: missing
Ceiling: 1600 feet AGL
Clouds: broken clouds at 1600 feet AGL
Weather: -TSRA  (light rain associated with thunderstorm(s))